sensor_id;sensor_type;location;lat;lon;timestamp;P1;durP1;ratioP1;P2;durP2;ratioP2
19358;SDS011;9815;52.334;20.890;2023-10-08T00:01:29;14.57;;;4.87;;
19358;SDS011;9815;52.334;20.890;2023-10-08T00:04:00;10.07;;;5.20;;
19358;SDS011;9815;52.334;20.890;2023-10-08T00:06:32;10.30;;;4.67;;
19358;SDS011;9815;52.334;20.890;2023-10-08T00:09:01;15.20;;;5.83;;
19358;SDS011;9815;52.334;20.890;2023-10-08T00:11:36;13.37;;;5.70;;
19358;SDS011;9815;52.334;20.890;2023-10-08T00:14:07;17.47;;;5.63;;
19358;SDS011;9815;52.334;20.890;2023-10-08T00:16:36;14.60;;;5.07;;
19358;SDS011;9815;52.334;20.890;2023-10-08T00:19:06;14.97;;;5.80;;
19358;SDS011;9815;52.334;20.890;2023-10-08T00:21:37;15.97;;;4.77;;
19358;SDS011;9815;52.334;20.890;2023-10-08T00:24:06;16.73;;;5.43;;
19358;SDS011;9815;52.334;20.890;2023-10-08T00:26:35;16.13;;;5.70;;
19358;SDS011;9815;52.334;20.890;2023-10-08T00:29:07;18.30;;;5.43;;
19358;SDS011;9815;52.334;20.890;2023-10-08T00:31:43;15.60;;;5.40;;
19358;SDS011;9815;52.334;20.890;2023-10-08T00:34:12;10.37;;;5.33;;
19358;SDS011;9815;52.334;20.890;2023-10-08T00:36:43;18.80;;;6.10;;
19358;SDS011;9815;52.334;20.890;2023-10-08T00:39:12;14.23;;;5.63;;
19358;SDS011;9815;52.334;20.890;2023-10-08T00:41:43;17.93;;;6.50;;
19358;SDS011;9815;52.334;20.890;2023-10-08T00:44:13;10.67;;;5.53;;
19358;SDS011;9815;52.334;20.890;2023-10-08T00:46:48;15.33;;;6.10;;
19358;SDS011;9815;52.334;20.890;2023-10-08T00:49:19;14.10;;;6.30;;
19358;SDS011;9815;52.334;20.890;2023-10-08T00:52:14;13.93;;;6.13;;
19358;SDS011;9815;52.334;20.890;2023-10-08T00:54:56;18.30;;;6.23;;
19358;SDS011;9815;52.334;20.890;2023-10-08T00:57:41;14.30;;;6.50;;
19358;SDS011;9815;52.334;20.890;2023-10-08T01:00:15;18.03;;;6.40;;
19358;SDS011;9815;52.334;20.890;2023-10-08T01:02:47;18.83;;;6.70;;
19358;SDS011;9815;52.334;20.890;2023-10-08T01:05:21;18.27;;;6.63;;
19358;SDS011;9815;52.334;20.890;2023-10-08T01:08:05;18.60;;;6.90;;
19358;SDS011;9815;52.334;20.890;2023-10-08T01:10:35;15.20;;;6.53;;
19358;SDS011;9815;52.334;20.890;2023-10-08T01:13:04;13.53;;;6.80;;
19358;SDS011;9815;52.334;20.890;2023-10-08T01:15:40;13.40;;;6.40;;
19358;SDS011;9815;52.334;20.890;2023-10-08T01:18:11;17.73;;;6.83;;
19358;SDS011;9815;52.334;20.890;2023-10-08T01:20:44;16.97;;;6.87;;
19358;SDS011;9815;52.334;20.890;2023-10-08T01:23:20;14.73;;;6.60;;
19358;SDS011;9815;52.334;20.890;2023-10-08T01:25:53;21.37;;;6.63;;
19358;SDS011;9815;52.334;20.890;2023-10-08T01:28:36;13.50;;;6.30;;
19358;SDS011;9815;52.334;20.890;2023-10-08T01:31:05;17.00;;;6.60;;
19358;SDS011;9815;52.334;20.890;2023-10-08T01:33:34;16.00;;;6.60;;
19358;SDS011;9815;52.334;20.890;2023-10-08T01:36:05;18.90;;;6.40;;
19358;SDS011;9815;52.334;20.890;2023-10-08T01:38:40;18.13;;;6.93;;
19358;SDS011;9815;52.334;20.890;2023-10-08T01:41:09;19.37;;;6.63;;
19358;SDS011;9815;52.334;20.890;2023-10-08T01:43:46;17.37;;;6.23;;
19358;SDS011;9815;52.334;20.890;2023-10-08T01:46:17;12.70;;;6.20;;
19358;SDS011;9815;52.334;20.890;2023-10-08T01:48:48;12.77;;;6.63;;
19358;SDS011;9815;52.334;20.890;2023-10-08T01:51:22;14.13;;;6.53;;
19358;SDS011;9815;52.334;20.890;2023-10-08T01:54:03;16.37;;;6.63;;
19358;SDS011;9815;52.334;20.890;2023-10-08T01:56:38;16.80;;;6.73;;
19358;SDS011;9815;52.334;20.890;2023-10-08T01:59:09;17.00;;;6.80;;
19358;SDS011;9815;52.334;20.890;2023-10-08T02:01:38;15.40;;;6.83;;
19358;SDS011;9815;52.334;20.890;2023-10-08T02:04:08;16.13;;;6.53;;
19358;SDS011;9815;52.334;20.890;2023-10-08T02:06:39;19.87;;;7.30;;
19358;SDS011;9815;52.334;20.890;2023-10-08T02:09:09;20.80;;;7.03;;
19358;SDS011;9815;52.334;20.890;2023-10-08T02:11:43;19.73;;;7.33;;
19358;SDS011;9815;52.334;20.890;2023-10-08T02:14:17;15.70;;;6.20;;
19358;SDS011;9815;52.334;20.890;2023-10-08T02:16:45;19.17;;;6.97;;
19358;SDS011;9815;52.334;20.890;2023-10-08T02:19:15;18.50;;;6.67;;
19358;SDS011;9815;52.334;20.890;2023-10-08T02:21:54;11.87;;;5.70;;
19358;SDS011;9815;52.334;20.890;2023-10-08T02:24:26;16.43;;;6.43;;
19358;SDS011;9815;52.334;20.890;2023-10-08T02:26:55;16.40;;;6.73;;
19358;SDS011;9815;52.334;20.890;2023-10-08T02:29:25;19.20;;;6.40;;
19358;SDS011;9815;52.334;20.890;2023-10-08T02:31:55;23.27;;;6.57;;
19358;SDS011;9815;52.334;20.890;2023-10-08T02:34:24;16.70;;;6.07;;
19358;SDS011;9815;52.334;20.890;2023-10-08T02:36:53;21.50;;;6.70;;
19358;SDS011;9815;52.334;20.890;2023-10-08T02:39:21;13.00;;;6.13;;
19358;SDS011;9815;52.334;20.890;2023-10-08T02:41:53;17.40;;;5.50;;
19358;SDS011;9815;52.334;20.890;2023-10-08T02:44:26;14.93;;;5.77;;
19358;SDS011;9815;52.334;20.890;2023-10-08T02:46:55;16.80;;;5.97;;
19358;SDS011;9815;52.334;20.890;2023-10-08T02:49:23;19.80;;;5.47;;
19358;SDS011;9815;52.334;20.890;2023-10-08T02:51:52;11.43;;;5.53;;
19358;SDS011;9815;52.334;20.890;2023-10-08T02:54:22;10.37;;;5.03;;
19358;SDS011;9815;52.334;20.890;2023-10-08T02:57:00;15.40;;;4.73;;
19358;SDS011;9815;52.334;20.890;2023-10-08T02:59:31;17.20;;;5.17;;
19358;SDS011;9815;52.334;20.890;2023-10-08T03:02:08;11.70;;;4.60;;
19358;SDS011;9815;52.334;20.890;2023-10-08T03:04:42;6.83;;;3.60;;
19358;SDS011;9815;52.334;20.890;2023-10-08T03:07:12;8.17;;;3.03;;
19358;SDS011;9815;52.334;20.890;2023-10-08T03:09:50;8.20;;;3.23;;
19358;SDS011;9815;52.334;20.890;2023-10-08T03:12:31;6.80;;;3.13;;
19358;SDS011;9815;52.334;20.890;2023-10-08T03:15:01;7.93;;;3.00;;
19358;SDS011;9815;52.334;20.890;2023-10-08T03:17:40;4.60;;;2.37;;
19358;SDS011;9815;52.334;20.890;2023-10-08T03:20:16;5.63;;;2.10;;
19358;SDS011;9815;52.334;20.890;2023-10-08T03:23:05;4.97;;;1.83;;
19358;SDS011;9815;52.334;20.890;2023-10-08T03:25:40;5.63;;;2.20;;
19358;SDS011;9815;52.334;20.890;2023-10-08T03:28:10;5.87;;;2.30;;
19358;SDS011;9815;52.334;20.890;2023-10-08T03:30:39;2.20;;;1.33;;
19358;SDS011;9815;52.334;20.890;2023-10-08T03:33:18;3.83;;;1.77;;
19358;SDS011;9815;52.334;20.890;2023-10-08T03:35:53;7.93;;;1.80;;
19358;SDS011;9815;52.334;20.890;2023-10-08T03:38:22;3.47;;;1.80;;
19358;SDS011;9815;52.334;20.890;2023-10-08T03:41:06;6.30;;;2.00;;
19358;SDS011;9815;52.334;20.890;2023-10-08T03:43:43;2.87;;;1.70;;
19358;SDS011;9815;52.334;20.890;2023-10-08T03:46:19;3.37;;;1.60;;
19358;SDS011;9815;52.334;20.890;2023-10-08T03:48:50;4.87;;;1.70;;
19358;SDS011;9815;52.334;20.890;2023-10-08T03:51:18;3.97;;;1.70;;
19358;SDS011;9815;52.334;20.890;2023-10-08T03:53:47;6.20;;;1.60;;
19358;SDS011;9815;52.334;20.890;2023-10-08T03:56:26;3.27;;;1.60;;
19358;SDS011;9815;52.334;20.890;2023-10-08T03:58:58;3.00;;;1.30;;
19358;SDS011;9815;52.334;20.890;2023-10-08T04:01:29;4.73;;;1.57;;
19358;SDS011;9815;52.334;20.890;2023-10-08T04:03:58;4.43;;;1.70;;
19358;SDS011;9815;52.334;20.890;2023-10-08T04:06:27;3.07;;;1.40;;
19358;SDS011;9815;52.334;20.890;2023-10-08T04:08:57;5.93;;;1.70;;
19358;SDS011;9815;52.334;20.890;2023-10-08T04:11:39;2.97;;;1.70;;
19358;SDS011;9815;52.334;20.890;2023-10-08T04:14:23;3.07;;;1.47;;
19358;SDS011;9815;52.334;20.890;2023-10-08T04:16:54;3.10;;;1.47;;
19358;SDS011;9815;52.334;20.890;2023-10-08T04:19:22;2.30;;;1.30;;
19358;SDS011;9815;52.334;20.890;2023-10-08T04:21:54;2.53;;;1.60;;
19358;SDS011;9815;52.334;20.890;2023-10-08T04:24:23;3.13;;;1.27;;
19358;SDS011;9815;52.334;20.890;2023-10-08T04:27:24;4.33;;;1.30;;
19358;SDS011;9815;52.334;20.890;2023-10-08T04:30:02;6.00;;;1.60;;
19358;SDS011;9815;52.334;20.890;2023-10-08T04:32:38;4.00;;;1.33;;
19358;SDS011;9815;52.334;20.890;2023-10-08T04:35:08;3.00;;;1.70;;
19358;SDS011;9815;52.334;20.890;2023-10-08T04:37:41;2.70;;;1.37;;
19358;SDS011;9815;52.334;20.890;2023-10-08T04:40:11;2.13;;;1.40;;
19358;SDS011;9815;52.334;20.890;2023-10-08T04:42:43;1.97;;;1.20;;
19358;SDS011;9815;52.334;20.890;2023-10-08T04:45:16;2.57;;;1.30;;
19358;SDS011;9815;52.334;20.890;2023-10-08T04:47:53;3.07;;;1.50;;
19358;SDS011;9815;52.334;20.890;2023-10-08T04:50:25;2.27;;;1.27;;
19358;SDS011;9815;52.334;20.890;2023-10-08T04:52:57;4.07;;;1.70;;
19358;SDS011;9815;52.334;20.890;2023-10-08T04:55:26;3.53;;;1.80;;
19358;SDS011;9815;52.334;20.890;2023-10-08T04:57:56;3.13;;;1.37;;
19358;SDS011;9815;52.334;20.890;2023-10-08T05:00:27;4.93;;;1.60;;
19358;SDS011;9815;52.334;20.890;2023-10-08T05:03:10;1.90;;;1.37;;
19358;SDS011;9815;52.334;20.890;2023-10-08T05:05:42;4.50;;;1.80;;
19358;SDS011;9815;52.334;20.890;2023-10-08T05:08:34;4.07;;;1.70;;
19358;SDS011;9815;52.334;20.890;2023-10-08T05:11:14;7.23;;;1.73;;
19358;SDS011;9815;52.334;20.890;2023-10-08T05:13:51;3.53;;;1.50;;
19358;SDS011;9815;52.334;20.890;2023-10-08T05:16:34;3.53;;;1.40;;
19358;SDS011;9815;52.334;20.890;2023-10-08T05:19:19;2.33;;;1.30;;
19358;SDS011;9815;52.334;20.890;2023-10-08T05:22:15;3.97;;;1.37;;
19358;SDS011;9815;52.334;20.890;2023-10-08T05:25:08;1.90;;;1.47;;
19358;SDS011;9815;52.334;20.890;2023-10-08T05:27:52;3.00;;;1.50;;
19358;SDS011;9815;52.334;20.890;2023-10-08T05:30:36;2.90;;;1.70;;
19358;SDS011;9815;52.334;20.890;2023-10-08T05:33:21;2.13;;;1.27;;
19358;SDS011;9815;52.334;20.890;2023-10-08T05:35:52;3.70;;;1.33;;
19358;SDS011;9815;52.334;20.890;2023-10-08T05:38:36;2.37;;;1.30;;
19358;SDS011;9815;52.334;20.890;2023-10-08T05:41:26;4.13;;;1.60;;
19358;SDS011;9815;52.334;20.890;2023-10-08T05:44:06;5.57;;;1.60;;
19358;SDS011;9815;52.334;20.890;2023-10-08T05:47:05;3.50;;;1.60;;
19358;SDS011;9815;52.334;20.890;2023-10-08T05:49:51;6.10;;;1.47;;
19358;SDS011;9815;52.334;20.890;2023-10-08T05:52:51;1.40;;;1.10;;
19358;SDS011;9815;52.334;20.890;2023-10-08T05:55:29;1.90;;;1.40;;
19358;SDS011;9815;52.334;20.890;2023-10-08T05:58:02;1.77;;;1.30;;
19358;SDS011;9815;52.334;20.890;2023-10-08T06:00:51;1.30;;;1.17;;
19358;SDS011;9815;52.334;20.890;2023-10-08T06:03:35;1.87;;;1.20;;
19358;SDS011;9815;52.334;20.890;2023-10-08T06:06:13;1.30;;;1.20;;
19358;SDS011;9815;52.334;20.890;2023-10-08T06:08:54;3.97;;;1.47;;
19358;SDS011;9815;52.334;20.890;2023-10-08T06:11:41;2.77;;;1.27;;
19358;SDS011;9815;52.334;20.890;2023-10-08T06:14:32;1.73;;;1.27;;
19358;SDS011;9815;52.334;20.890;2023-10-08T06:17:19;1.90;;;1.20;;
19358;SDS011;9815;52.334;20.890;2023-10-08T06:20:02;3.53;;;1.40;;
19358;SDS011;9815;52.334;20.890;2023-10-08T06:22:36;2.07;;;1.27;;
19358;SDS011;9815;52.334;20.890;2023-10-08T06:25:07;2.57;;;1.43;;
19358;SDS011;9815;52.334;20.890;2023-10-08T06:27:50;1.50;;;1.10;;
19358;SDS011;9815;52.334;20.890;2023-10-08T06:30:22;2.70;;;1.30;;
19358;SDS011;9815;52.334;20.890;2023-10-08T06:32:56;1.87;;;1.23;;
19358;SDS011;9815;52.334;20.890;2023-10-08T06:35:28;1.60;;;1.03;;
19358;SDS011;9815;52.334;20.890;2023-10-08T06:37:56;1.83;;;1.30;;
19358;SDS011;9815;52.334;20.890;2023-10-08T06:40:29;2.83;;;1.50;;
19358;SDS011;9815;52.334;20.890;2023-10-08T06:43:09;3.17;;;1.17;;
19358;SDS011;9815;52.334;20.890;2023-10-08T06:45:48;2.77;;;1.10;;
19358;SDS011;9815;52.334;20.890;2023-10-08T06:48:20;1.93;;;1.30;;
19358;SDS011;9815;52.334;20.890;2023-10-08T06:50:52;1.73;;;1.20;;
19358;SDS011;9815;52.334;20.890;2023-10-08T06:53:24;2.17;;;1.20;;
19358;SDS011;9815;52.334;20.890;2023-10-08T06:55:57;2.90;;;1.30;;
19358;SDS011;9815;52.334;20.890;2023-10-08T06:58:31;5.70;;;1.47;;
19358;SDS011;9815;52.334;20.890;2023-10-08T07:01:01;2.43;;;1.30;;
19358;SDS011;9815;52.334;20.890;2023-10-08T07:03:32;3.40;;;1.20;;
19358;SDS011;9815;52.334;20.890;2023-10-08T07:06:02;3.67;;;1.40;;
19358;SDS011;9815;52.334;20.890;2023-10-08T07:08:44;1.30;;;0.90;;
19358;SDS011;9815;52.334;20.890;2023-10-08T07:11:24;2.43;;;1.17;;
19358;SDS011;9815;52.334;20.890;2023-10-08T07:13:54;1.20;;;1.10;;
19358;SDS011;9815;52.334;20.890;2023-10-08T07:16:23;2.33;;;1.20;;
19358;SDS011;9815;52.334;20.890;2023-10-08T07:18:56;2.40;;;1.20;;
19358;SDS011;9815;52.334;20.890;2023-10-08T07:21:29;5.13;;;1.47;;
19358;SDS011;9815;52.334;20.890;2023-10-08T07:24:11;3.60;;;1.47;;
19358;SDS011;9815;52.334;20.890;2023-10-08T07:26:47;1.87;;;1.10;;
19358;SDS011;9815;52.334;20.890;2023-10-08T07:29:22;2.63;;;1.40;;
19358;SDS011;9815;52.334;20.890;2023-10-08T07:31:52;3.57;;;1.47;;
19358;SDS011;9815;52.334;20.890;2023-10-08T07:34:20;2.57;;;1.33;;
19358;SDS011;9815;52.334;20.890;2023-10-08T07:36:58;2.50;;;1.40;;
19358;SDS011;9815;52.334;20.890;2023-10-08T07:39:27;2.93;;;1.20;;
19358;SDS011;9815;52.334;20.890;2023-10-08T07:42:04;4.67;;;1.30;;
19358;SDS011;9815;52.334;20.890;2023-10-08T07:44:36;2.13;;;1.20;;
19358;SDS011;9815;52.334;20.890;2023-10-08T07:47:06;2.60;;;1.30;;
19358;SDS011;9815;52.334;20.890;2023-10-08T07:49:39;5.37;;;1.37;;
19358;SDS011;9815;52.334;20.890;2023-10-08T07:52:11;1.67;;;1.20;;
19358;SDS011;9815;52.334;20.890;2023-10-08T07:54:43;1.87;;;1.13;;
19358;SDS011;9815;52.334;20.890;2023-10-08T07:57:14;2.00;;;1.03;;
19358;SDS011;9815;52.334;20.890;2023-10-08T07:59:46;2.07;;;1.40;;
19358;SDS011;9815;52.334;20.890;2023-10-08T08:02:21;2.80;;;1.20;;
19358;SDS011;9815;52.334;20.890;2023-10-08T08:04:54;1.57;;;1.13;;
19358;SDS011;9815;52.334;20.890;2023-10-08T08:07:23;3.30;;;1.30;;
19358;SDS011;9815;52.334;20.890;2023-10-08T08:09:52;2.30;;;1.00;;
19358;SDS011;9815;52.334;20.890;2023-10-08T08:12:28;4.40;;;1.33;;
19358;SDS011;9815;52.334;20.890;2023-10-08T08:15:00;4.07;;;1.53;;
19358;SDS011;9815;52.334;20.890;2023-10-08T08:17:41;2.30;;;1.30;;
19358;SDS011;9815;52.334;20.890;2023-10-08T08:20:11;3.57;;;1.60;;
19358;SDS011;9815;52.334;20.890;2023-10-08T08:22:46;13.83;;;1.47;;
19358;SDS011;9815;52.334;20.890;2023-10-08T08:25:21;4.30;;;1.40;;
19358;SDS011;9815;52.334;20.890;2023-10-08T08:28:03;1.67;;;1.03;;
19358;SDS011;9815;52.334;20.890;2023-10-08T08:30:43;3.23;;;1.10;;
19358;SDS011;9815;52.334;20.890;2023-10-08T08:33:13;2.50;;;1.00;;
19358;SDS011;9815;52.334;20.890;2023-10-08T08:35:57;1.37;;;1.00;;
19358;SDS011;9815;52.334;20.890;2023-10-08T08:38:27;3.30;;;1.17;;
19358;SDS011;9815;52.334;20.890;2023-10-08T08:41:02;3.67;;;1.17;;
19358;SDS011;9815;52.334;20.890;2023-10-08T08:43:42;2.43;;;1.23;;
19358;SDS011;9815;52.334;20.890;2023-10-08T08:46:14;1.63;;;1.13;;
19358;SDS011;9815;52.334;20.890;2023-10-08T08:48:43;1.33;;;1.00;;
19358;SDS011;9815;52.334;20.890;2023-10-08T08:51:15;1.50;;;1.20;;
19358;SDS011;9815;52.334;20.890;2023-10-08T08:53:43;5.83;;;1.27;;
19358;SDS011;9815;52.334;20.890;2023-10-08T08:56:13;3.20;;;1.27;;
19358;SDS011;9815;52.334;20.890;2023-10-08T08:58:44;2.20;;;1.27;;
19358;SDS011;9815;52.334;20.890;2023-10-08T09:01:16;1.57;;;0.90;;
19358;SDS011;9815;52.334;20.890;2023-10-08T09:03:46;3.07;;;1.20;;
19358;SDS011;9815;52.334;20.890;2023-10-08T09:06:17;1.23;;;1.00;;
19358;SDS011;9815;52.334;20.890;2023-10-08T09:08:46;9.03;;;1.20;;
19358;SDS011;9815;52.334;20.890;2023-10-08T09:11:16;2.00;;;1.17;;
19358;SDS011;9815;52.334;20.890;2023-10-08T09:13:46;1.97;;;1.00;;
19358;SDS011;9815;52.334;20.890;2023-10-08T09:16:16;2.47;;;1.20;;
19358;SDS011;9815;52.334;20.890;2023-10-08T09:18:47;3.40;;;1.27;;
19358;SDS011;9815;52.334;20.890;2023-10-08T09:21:18;3.70;;;1.37;;
19358;SDS011;9815;52.334;20.890;2023-10-08T09:23:49;1.13;;;1.03;;
19358;SDS011;9815;52.334;20.890;2023-10-08T09:26:22;5.73;;;1.00;;
19358;SDS011;9815;52.334;20.890;2023-10-08T09:28:53;1.70;;;1.20;;
19358;SDS011;9815;52.334;20.890;2023-10-08T09:31:22;2.20;;;0.93;;
19358;SDS011;9815;52.334;20.890;2023-10-08T09:33:55;1.20;;;1.00;;
19358;SDS011;9815;52.334;20.890;2023-10-08T09:36:24;3.40;;;1.13;;
19358;SDS011;9815;52.334;20.890;2023-10-08T09:39:01;0.87;;;0.80;;
19358;SDS011;9815;52.334;20.890;2023-10-08T09:41:32;2.47;;;0.90;;
19358;SDS011;9815;52.334;20.890;2023-10-08T09:44:06;1.93;;;1.03;;
19358;SDS011;9815;52.334;20.890;2023-10-08T09:46:39;1.60;;;1.10;;
19358;SDS011;9815;52.334;20.890;2023-10-08T09:49:11;1.87;;;1.00;;
19358;SDS011;9815;52.334;20.890;2023-10-08T09:51:44;1.10;;;0.93;;
19358;SDS011;9815;52.334;20.890;2023-10-08T09:54:15;2.87;;;1.00;;
19358;SDS011;9815;52.334;20.890;2023-10-08T09:56:46;5.23;;;1.20;;
19358;SDS011;9815;52.334;20.890;2023-10-08T09:59:17;1.23;;;0.90;;
19358;SDS011;9815;52.334;20.890;2023-10-08T10:01:46;1.03;;;0.90;;
19358;SDS011;9815;52.334;20.890;2023-10-08T10:04:22;1.97;;;1.20;;
19358;SDS011;9815;52.334;20.890;2023-10-08T10:06:52;5.50;;;1.30;;
19358;SDS011;9815;52.334;20.890;2023-10-08T10:09:20;1.23;;;0.90;;
19358;SDS011;9815;52.334;20.890;2023-10-08T10:11:51;1.87;;;0.90;;
19358;SDS011;9815;52.334;20.890;2023-10-08T10:14:23;1.97;;;1.00;;
19358;SDS011;9815;52.334;20.890;2023-10-08T10:17:09;1.80;;;0.90;;
19358;SDS011;9815;52.334;20.890;2023-10-08T10:20:01;2.57;;;1.00;;
19358;SDS011;9815;52.334;20.890;2023-10-08T10:22:33;1.73;;;0.93;;
19358;SDS011;9815;52.334;20.890;2023-10-08T10:25:02;0.87;;;0.83;;
19358;SDS011;9815;52.334;20.890;2023-10-08T10:27:41;2.47;;;0.90;;
19358;SDS011;9815;52.334;20.890;2023-10-08T10:30:11;2.63;;;1.13;;
19358;SDS011;9815;52.334;20.890;2023-10-08T10:32:51;3.67;;;1.00;;
19358;SDS011;9815;52.334;20.890;2023-10-08T10:35:19;2.33;;;1.00;;
19358;SDS011;9815;52.334;20.890;2023-10-08T10:37:48;1.43;;;0.90;;
19358;SDS011;9815;52.334;20.890;2023-10-08T10:40:19;2.17;;;1.00;;
19358;SDS011;9815;52.334;20.890;2023-10-08T10:42:55;2.40;;;0.87;;
19358;SDS011;9815;52.334;20.890;2023-10-08T10:45:29;2.40;;;1.07;;
19358;SDS011;9815;52.334;20.890;2023-10-08T10:48:06;1.00;;;0.90;;
19358;SDS011;9815;52.334;20.890;2023-10-08T10:50:40;1.97;;;0.93;;
19358;SDS011;9815;52.334;20.890;2023-10-08T10:53:17;1.70;;;0.90;;
19358;SDS011;9815;52.334;20.890;2023-10-08T10:55:46;2.60;;;1.20;;
19358;SDS011;9815;52.334;20.890;2023-10-08T10:58:25;1.53;;;1.03;;
19358;SDS011;9815;52.334;20.890;2023-10-08T11:01:06;3.93;;;1.17;;
19358;SDS011;9815;52.334;20.890;2023-10-08T11:03:50;2.43;;;0.90;;
19358;SDS011;9815;52.334;20.890;2023-10-08T11:06:19;2.27;;;0.93;;
19358;SDS011;9815;52.334;20.890;2023-10-08T11:08:50;1.10;;;0.80;;
19358;SDS011;9815;52.334;20.890;2023-10-08T11:11:19;1.50;;;0.90;;
19358;SDS011;9815;52.334;20.890;2023-10-08T11:13:56;3.63;;;1.00;;
19358;SDS011;9815;52.334;20.890;2023-10-08T11:16:29;1.27;;;0.97;;
19358;SDS011;9815;52.334;20.890;2023-10-08T11:18:59;3.13;;;0.93;;
19358;SDS011;9815;52.334;20.890;2023-10-08T11:21:47;1.73;;;0.90;;
19358;SDS011;9815;52.334;20.890;2023-10-08T11:24:26;1.40;;;1.00;;
19358;SDS011;9815;52.334;20.890;2023-10-08T11:26:56;2.33;;;0.90;;
19358;SDS011;9815;52.334;20.890;2023-10-08T11:29:43;4.37;;;0.80;;
19358;SDS011;9815;52.334;20.890;2023-10-08T11:32:14;5.30;;;1.10;;
19358;SDS011;9815;52.334;20.890;2023-10-08T11:34:45;2.10;;;0.97;;
19358;SDS011;9815;52.334;20.890;2023-10-08T11:37:26;1.00;;;0.90;;
19358;SDS011;9815;52.334;20.890;2023-10-08T11:39:54;0.80;;;0.80;;
19358;SDS011;9815;52.334;20.890;2023-10-08T11:42:26;2.17;;;0.80;;
19358;SDS011;9815;52.334;20.890;2023-10-08T11:45:11;1.83;;;0.97;;
19358;SDS011;9815;52.334;20.890;2023-10-08T11:47:47;1.37;;;0.90;;
19358;SDS011;9815;52.334;20.890;2023-10-08T11:50:16;1.37;;;0.90;;
19358;SDS011;9815;52.334;20.890;2023-10-08T11:52:46;3.67;;;0.90;;
19358;SDS011;9815;52.334;20.890;2023-10-08T11:55:20;3.30;;;1.00;;
19358;SDS011;9815;52.334;20.890;2023-10-08T11:57:49;2.73;;;1.00;;
19358;SDS011;9815;52.334;20.890;2023-10-08T12:00:18;3.37;;;1.13;;
19358;SDS011;9815;52.334;20.890;2023-10-08T12:02:51;3.10;;;1.00;;
19358;SDS011;9815;52.334;20.890;2023-10-08T12:05:22;1.93;;;1.00;;
19358;SDS011;9815;52.334;20.890;2023-10-08T12:07:52;5.63;;;1.00;;
19358;SDS011;9815;52.334;20.890;2023-10-08T12:10:24;4.93;;;0.90;;
19358;SDS011;9815;52.334;20.890;2023-10-08T12:12:53;0.90;;;0.80;;
19358;SDS011;9815;52.334;20.890;2023-10-08T12:15:22;4.60;;;0.80;;
19358;SDS011;9815;52.334;20.890;2023-10-08T12:18:02;5.60;;;1.07;;
19358;SDS011;9815;52.334;20.890;2023-10-08T12:20:40;1.87;;;1.10;;
19358;SDS011;9815;52.334;20.890;2023-10-08T12:23:12;1.90;;;1.20;;
19358;SDS011;9815;52.334;20.890;2023-10-08T12:25:51;1.67;;;0.90;;
19358;SDS011;9815;52.334;20.890;2023-10-08T12:28:22;1.33;;;0.93;;
19358;SDS011;9815;52.334;20.890;2023-10-08T12:30:51;2.03;;;1.03;;
19358;SDS011;9815;52.334;20.890;2023-10-08T12:33:22;1.40;;;0.90;;
19358;SDS011;9815;52.334;20.890;2023-10-08T12:35:56;0.73;;;0.73;;
19358;SDS011;9815;52.334;20.890;2023-10-08T12:38:38;7.53;;;0.90;;
19358;SDS011;9815;52.334;20.890;2023-10-08T12:41:09;3.67;;;1.00;;
19358;SDS011;9815;52.334;20.890;2023-10-08T12:43:41;1.27;;;1.00;;
19358;SDS011;9815;52.334;20.890;2023-10-08T12:46:12;3.40;;;1.10;;
19358;SDS011;9815;52.334;20.890;2023-10-08T12:48:52;3.37;;;1.40;;
19358;SDS011;9815;52.334;20.890;2023-10-08T12:51:23;2.30;;;1.30;;
19358;SDS011;9815;52.334;20.890;2023-10-08T12:53:52;5.83;;;2.80;;
19358;SDS011;9815;52.334;20.890;2023-10-08T12:56:31;2.40;;;1.27;;
19358;SDS011;9815;52.334;20.890;2023-10-08T12:59:02;3.83;;;1.20;;
19358;SDS011;9815;52.334;20.890;2023-10-08T13:01:33;2.07;;;1.17;;
19358;SDS011;9815;52.334;20.890;2023-10-08T13:04:04;1.07;;;0.97;;
19358;SDS011;9815;52.334;20.890;2023-10-08T13:06:42;1.93;;;0.90;;
19358;SDS011;9815;52.334;20.890;2023-10-08T13:09:13;1.40;;;1.00;;
19358;SDS011;9815;52.334;20.890;2023-10-08T13:11:42;1.37;;;1.00;;
19358;SDS011;9815;52.334;20.890;2023-10-08T13:14:12;1.93;;;1.10;;
19358;SDS011;9815;52.334;20.890;2023-10-08T13:16:41;1.03;;;0.90;;
19358;SDS011;9815;52.334;20.890;2023-10-08T13:19:13;2.37;;;1.00;;
19358;SDS011;9815;52.334;20.890;2023-10-08T13:21:42;4.83;;;1.20;;
19358;SDS011;9815;52.334;20.890;2023-10-08T13:24:10;2.80;;;1.07;;
19358;SDS011;9815;52.334;20.890;2023-10-08T13:26:40;2.20;;;1.10;;
19358;SDS011;9815;52.334;20.890;2023-10-08T13:29:14;2.13;;;1.17;;
19358;SDS011;9815;52.334;20.890;2023-10-08T13:31:45;3.70;;;1.00;;
19358;SDS011;9815;52.334;20.890;2023-10-08T13:34:15;1.93;;;1.00;;
19358;SDS011;9815;52.334;20.890;2023-10-08T13:36:43;6.13;;;0.97;;
19358;SDS011;9815;52.334;20.890;2023-10-08T13:39:14;5.37;;;1.07;;
19358;SDS011;9815;52.334;20.890;2023-10-08T13:41:46;3.87;;;1.10;;
19358;SDS011;9815;52.334;20.890;2023-10-08T13:44:15;4.40;;;1.20;;
19358;SDS011;9815;52.334;20.890;2023-10-08T13:46:45;2.37;;;1.10;;
19358;SDS011;9815;52.334;20.890;2023-10-08T13:49:21;1.07;;;0.83;;
19358;SDS011;9815;52.334;20.890;2023-10-08T13:51:53;2.17;;;1.20;;
19358;SDS011;9815;52.334;20.890;2023-10-08T13:54:24;7.43;;;1.20;;
19358;SDS011;9815;52.334;20.890;2023-10-08T13:56:56;4.87;;;1.30;;
19358;SDS011;9815;52.334;20.890;2023-10-08T13:59:28;2.67;;;1.33;;
19358;SDS011;9815;52.334;20.890;2023-10-08T14:01:59;7.07;;;1.10;;
19358;SDS011;9815;52.334;20.890;2023-10-08T14:04:30;2.07;;;1.07;;
19358;SDS011;9815;52.334;20.890;2023-10-08T14:07:07;1.40;;;0.90;;
19358;SDS011;9815;52.334;20.890;2023-10-08T14:09:36;3.80;;;1.00;;
19358;SDS011;9815;52.334;20.890;2023-10-08T14:12:08;1.87;;;1.30;;
19358;SDS011;9815;52.334;20.890;2023-10-08T14:14:37;4.50;;;1.17;;
19358;SDS011;9815;52.334;20.890;2023-10-08T14:17:11;5.60;;;1.27;;
19358;SDS011;9815;52.334;20.890;2023-10-08T14:19:43;1.57;;;1.20;;
19358;SDS011;9815;52.334;20.890;2023-10-08T14:22:19;1.80;;;1.10;;
19358;SDS011;9815;52.334;20.890;2023-10-08T14:24:49;1.97;;;1.30;;
19358;SDS011;9815;52.334;20.890;2023-10-08T14:27:26;2.13;;;1.00;;
19358;SDS011;9815;52.334;20.890;2023-10-08T14:29:58;1.27;;;1.00;;
19358;SDS011;9815;52.334;20.890;2023-10-08T14:32:30;1.33;;;1.00;;
19358;SDS011;9815;52.334;20.890;2023-10-08T14:35:01;2.50;;;0.90;;
19358;SDS011;9815;52.334;20.890;2023-10-08T14:37:47;2.10;;;1.07;;
19358;SDS011;9815;52.334;20.890;2023-10-08T14:40:33;2.27;;;1.23;;
19358;SDS011;9815;52.334;20.890;2023-10-08T14:43:19;2.47;;;1.00;;
19358;SDS011;9815;52.334;20.890;2023-10-08T14:45:50;2.77;;;1.13;;
19358;SDS011;9815;52.334;20.890;2023-10-08T14:48:21;6.97;;;1.23;;
19358;SDS011;9815;52.334;20.890;2023-10-08T14:50:51;3.30;;;1.10;;
19358;SDS011;9815;52.334;20.890;2023-10-08T14:53:20;2.10;;;1.10;;
19358;SDS011;9815;52.334;20.890;2023-10-08T14:55:50;1.87;;;1.00;;
19358;SDS011;9815;52.334;20.890;2023-10-08T14:58:19;1.37;;;1.07;;
19358;SDS011;9815;52.334;20.890;2023-10-08T15:00:49;1.30;;;1.10;;
19358;SDS011;9815;52.334;20.890;2023-10-08T15:03:20;3.80;;;1.10;;
19358;SDS011;9815;52.334;20.890;2023-10-08T15:05:49;1.50;;;1.10;;
19358;SDS011;9815;52.334;20.890;2023-10-08T15:08:19;2.30;;;1.40;;
19358;SDS011;9815;52.334;20.890;2023-10-08T15:10:48;5.27;;;1.50;;
19358;SDS011;9815;52.334;20.890;2023-10-08T15:13:17;2.07;;;1.30;;
19358;SDS011;9815;52.334;20.890;2023-10-08T15:15:46;1.43;;;1.10;;
19358;SDS011;9815;52.334;20.890;2023-10-08T15:18:16;3.13;;;1.50;;
19358;SDS011;9815;52.334;20.890;2023-10-08T15:20:45;6.60;;;2.37;;
19358;SDS011;9815;52.334;20.890;2023-10-08T15:23:14;6.37;;;2.70;;
19358;SDS011;9815;52.334;20.890;2023-10-08T15:25:45;3.30;;;1.87;;